sensor_id;sensor_type;location;lat;lon;timestamp;P1;durP1;ratioP1;P2;durP2;ratioP2
789;SDS011;378;48.844;9.156;2023-04-23T00:01:11;4.80;;;1.95;;
789;SDS011;378;48.844;9.156;2023-04-23T00:03:38;4.00;;;1.60;;
789;SDS011;378;48.844;9.156;2023-04-23T00:06:07;5.60;;;1.83;;
789;SDS011;378;48.844;9.156;2023-04-23T00:08:36;5.00;;;1.98;;
789;SDS011;378;48.844;9.156;2023-04-23T00:11:06;7.38;;;2.20;;
789;SDS011;378;48.844;9.156;2023-04-23T00:13:34;4.90;;;2.10;;
789;SDS011;378;48.844;9.156;2023-04-23T00:16:02;5.53;;;2.05;;
789;SDS011;378;48.844;9.156;2023-04-23T00:18:29;3.92;;;1.90;;
789;SDS011;378;48.844;9.156;2023-04-23T00:20:56;6.28;;;2.08;;
789;SDS011;378;48.844;9.156;2023-04-23T00:23:23;7.40;;;1.85;;
789;SDS011;378;48.844;9.156;2023-04-23T00:25:50;2.42;;;1.52;;
789;SDS011;378;48.844;9.156;2023-04-23T00:28:18;4.88;;;1.65;;
789;SDS011;378;48.844;9.156;2023-04-23T00:30:45;4.47;;;1.80;;
789;SDS011;378;48.844;9.156;2023-04-23T00:33:11;8.38;;;2.08;;
789;SDS011;378;48.844;9.156;2023-04-23T00:35:38;7.32;;;1.80;;
789;SDS011;378;48.844;9.156;2023-04-23T00:38:05;8.20;;;2.30;;
789;SDS011;378;48.844;9.156;2023-04-23T00:40:32;6.45;;;2.28;;
789;SDS011;378;48.844;9.156;2023-04-23T00:42:59;4.55;;;1.90;;
789;SDS011;378;48.844;9.156;2023-04-23T00:45:28;4.90;;;1.95;;
789;SDS011;378;48.844;9.156;2023-04-23T00:47:55;4.10;;;1.98;;
789;SDS011;378;48.844;9.156;2023-04-23T00:50:23;3.70;;;2.00;;
789;SDS011;378;48.844;9.156;2023-04-23T00:52:50;5.13;;;1.95;;
789;SDS011;378;48.844;9.156;2023-04-23T00:55:16;3.33;;;1.83;;
789;SDS011;378;48.844;9.156;2023-04-23T00:57:45;5.32;;;2.10;;
789;SDS011;378;48.844;9.156;2023-04-23T01:00:12;6.93;;;2.17;;
789;SDS011;378;48.844;9.156;2023-04-23T01:02:41;4.03;;;2.38;;
789;SDS011;378;48.844;9.156;2023-04-23T01:05:08;4.50;;;2.13;;
789;SDS011;378;48.844;9.156;2023-04-23T01:07:36;4.32;;;2.42;;
789;SDS011;378;48.844;9.156;2023-04-23T01:10:04;6.03;;;2.00;;
789;SDS011;378;48.844;9.156;2023-04-23T01:12:32;5.40;;;2.25;;
789;SDS011;378;48.844;9.156;2023-04-23T01:14:59;6.13;;;2.40;;
789;SDS011;378;48.844;9.156;2023-04-23T01:17:27;3.80;;;1.88;;
789;SDS011;378;48.844;9.156;2023-04-23T01:19:55;8.35;;;2.00;;
789;SDS011;378;48.844;9.156;2023-04-23T01:22:23;7.35;;;2.25;;
789;SDS011;378;48.844;9.156;2023-04-23T01:24:50;4.35;;;1.80;;
789;SDS011;378;48.844;9.156;2023-04-23T01:27:17;9.30;;;2.17;;
789;SDS011;378;48.844;9.156;2023-04-23T01:29:46;3.95;;;2.10;;
789;SDS011;378;48.844;9.156;2023-04-23T01:32:13;6.00;;;1.92;;
789;SDS011;378;48.844;9.156;2023-04-23T01:34:41;3.85;;;1.98;;
789;SDS011;378;48.844;9.156;2023-04-23T01:37:09;4.35;;;1.95;;
789;SDS011;378;48.844;9.156;2023-04-23T01:39:38;3.88;;;2.10;;
789;SDS011;378;48.844;9.156;2023-04-23T01:42:05;3.95;;;1.80;;
789;SDS011;378;48.844;9.156;2023-04-23T01:44:32;6.68;;;2.15;;
789;SDS011;378;48.844;9.156;2023-04-23T01:46:59;6.07;;;2.30;;
789;SDS011;378;48.844;9.156;2023-04-23T01:49:26;7.93;;;2.45;;
789;SDS011;378;48.844;9.156;2023-04-23T01:51:53;4.60;;;2.10;;
789;SDS011;378;48.844;9.156;2023-04-23T01:54:20;4.40;;;2.38;;
789;SDS011;378;48.844;9.156;2023-04-23T01:56:48;3.97;;;1.98;;
789;SDS011;378;48.844;9.156;2023-04-23T01:59:18;7.18;;;1.85;;
789;SDS011;378;48.844;9.156;2023-04-23T02:01:46;8.02;;;2.13;;
789;SDS011;378;48.844;9.156;2023-04-23T02:04:13;11.02;;;2.35;;
789;SDS011;378;48.844;9.156;2023-04-23T02:06:41;3.60;;;2.17;;
789;SDS011;378;48.844;9.156;2023-04-23T02:09:11;3.47;;;2.03;;
789;SDS011;378;48.844;9.156;2023-04-23T02:11:38;3.25;;;1.90;;
789;SDS011;378;48.844;9.156;2023-04-23T02:14:06;4.10;;;1.90;;
789;SDS011;378;48.844;9.156;2023-04-23T02:16:34;4.70;;;2.10;;
789;SDS011;378;48.844;9.156;2023-04-23T02:19:01;5.53;;;1.90;;
789;SDS011;378;48.844;9.156;2023-04-23T02:21:28;4.95;;;1.92;;
789;SDS011;378;48.844;9.156;2023-04-23T02:23:55;4.10;;;1.92;;
789;SDS011;378;48.844;9.156;2023-04-23T02:26:22;5.88;;;2.10;;
789;SDS011;378;48.844;9.156;2023-04-23T02:28:49;3.50;;;2.08;;
789;SDS011;378;48.844;9.156;2023-04-23T02:31:17;5.05;;;2.42;;
789;SDS011;378;48.844;9.156;2023-04-23T02:33:44;5.90;;;2.05;;
789;SDS011;378;48.844;9.156;2023-04-23T02:36:12;3.95;;;2.00;;
789;SDS011;378;48.844;9.156;2023-04-23T02:38:38;3.70;;;2.10;;
789;SDS011;378;48.844;9.156;2023-04-23T02:41:08;3.08;;;1.95;;
789;SDS011;378;48.844;9.156;2023-04-23T02:43:35;4.00;;;2.15;;
789;SDS011;378;48.844;9.156;2023-04-23T02:46:02;6.18;;;2.30;;
789;SDS011;378;48.844;9.156;2023-04-23T02:48:34;3.53;;;2.17;;
789;SDS011;378;48.844;9.156;2023-04-23T02:51:02;5.00;;;2.22;;
789;SDS011;378;48.844;9.156;2023-04-23T02:53:30;4.88;;;2.17;;
789;SDS011;378;48.844;9.156;2023-04-23T02:55:57;3.90;;;2.53;;
789;SDS011;378;48.844;9.156;2023-04-23T02:58:24;4.07;;;2.38;;
789;SDS011;378;48.844;9.156;2023-04-23T03:00:50;4.40;;;2.55;;
789;SDS011;378;48.844;9.156;2023-04-23T03:03:17;5.50;;;2.22;;
789;SDS011;378;48.844;9.156;2023-04-23T03:05:46;4.22;;;2.60;;
789;SDS011;378;48.844;9.156;2023-04-23T03:08:13;8.93;;;2.90;;
789;SDS011;378;48.844;9.156;2023-04-23T03:10:40;5.55;;;2.90;;
789;SDS011;378;48.844;9.156;2023-04-23T03:13:06;6.13;;;2.60;;
789;SDS011;378;48.844;9.156;2023-04-23T03:15:33;5.82;;;3.13;;
789;SDS011;378;48.844;9.156;2023-04-23T03:18:00;5.65;;;3.13;;
789;SDS011;378;48.844;9.156;2023-04-23T03:20:28;6.68;;;3.53;;
789;SDS011;378;48.844;9.156;2023-04-23T03:22:57;7.10;;;3.42;;
789;SDS011;378;48.844;9.156;2023-04-23T03:25:23;9.20;;;3.30;;
789;SDS011;378;48.844;9.156;2023-04-23T03:27:50;5.22;;;3.35;;
789;SDS011;378;48.844;9.156;2023-04-23T03:30:17;6.13;;;3.40;;
789;SDS011;378;48.844;9.156;2023-04-23T03:32:45;10.40;;;3.50;;
789;SDS011;378;48.844;9.156;2023-04-23T03:35:12;6.88;;;3.50;;
789;SDS011;378;48.844;9.156;2023-04-23T03:37:39;5.90;;;3.30;;
789;SDS011;378;48.844;9.156;2023-04-23T03:40:08;5.82;;;2.88;;
789;SDS011;378;48.844;9.156;2023-04-23T03:42:35;6.43;;;3.00;;
789;SDS011;378;48.844;9.156;2023-04-23T03:45:02;5.75;;;3.40;;
789;SDS011;378;48.844;9.156;2023-04-23T03:47:29;4.95;;;3.30;;
789;SDS011;378;48.844;9.156;2023-04-23T03:49:56;6.35;;;2.97;;
789;SDS011;378;48.844;9.156;2023-04-23T03:52:23;4.07;;;2.83;;
789;SDS011;378;48.844;9.156;2023-04-23T03:54:50;6.13;;;3.38;;
789;SDS011;378;48.844;9.156;2023-04-23T03:57:19;5.80;;;2.92;;
789;SDS011;378;48.844;9.156;2023-04-23T03:59:45;5.80;;;2.80;;
789;SDS011;378;48.844;9.156;2023-04-23T04:02:12;8.13;;;3.08;;
789;SDS011;378;48.844;9.156;2023-04-23T04:04:39;2.85;;;2.20;;
789;SDS011;378;48.844;9.156;2023-04-23T04:07:07;5.97;;;2.60;;
789;SDS011;378;48.844;9.156;2023-04-23T04:09:36;3.35;;;2.28;;
789;SDS011;378;48.844;9.156;2023-04-23T04:12:03;3.80;;;2.30;;
789;SDS011;378;48.844;9.156;2023-04-23T04:14:31;6.60;;;2.33;;
789;SDS011;378;48.844;9.156;2023-04-23T04:16:58;4.88;;;2.53;;
789;SDS011;378;48.844;9.156;2023-04-23T04:19:25;5.07;;;2.75;;
789;SDS011;378;48.844;9.156;2023-04-23T04:21:52;5.20;;;2.67;;
789;SDS011;378;48.844;9.156;2023-04-23T04:24:19;5.80;;;2.60;;
789;SDS011;378;48.844;9.156;2023-04-23T04:26:49;6.50;;;2.35;;
789;SDS011;378;48.844;9.156;2023-04-23T04:29:18;4.13;;;2.53;;
789;SDS011;378;48.844;9.156;2023-04-23T04:31:46;5.00;;;2.13;;
789;SDS011;378;48.844;9.156;2023-04-23T04:34:13;7.35;;;2.50;;
789;SDS011;378;48.844;9.156;2023-04-23T04:36:42;4.15;;;2.58;;
789;SDS011;378;48.844;9.156;2023-04-23T04:39:09;3.80;;;2.13;;
789;SDS011;378;48.844;9.156;2023-04-23T04:41:37;3.58;;;2.10;;
789;SDS011;378;48.844;9.156;2023-04-23T04:44:04;5.70;;;2.22;;
789;SDS011;378;48.844;9.156;2023-04-23T04:46:32;3.28;;;2.17;;
789;SDS011;378;48.844;9.156;2023-04-23T04:49:00;5.72;;;2.70;;
789;SDS011;378;48.844;9.156;2023-04-23T04:51:27;5.75;;;2.40;;
789;SDS011;378;48.844;9.156;2023-04-23T04:53:54;3.80;;;2.42;;
789;SDS011;378;48.844;9.156;2023-04-23T04:56:21;4.25;;;2.40;;
789;SDS011;378;48.844;9.156;2023-04-23T04:58:49;3.50;;;2.30;;
789;SDS011;378;48.844;9.156;2023-04-23T05:01:16;4.78;;;2.45;;
789;SDS011;378;48.844;9.156;2023-04-23T05:03:44;5.10;;;2.33;;
789;SDS011;378;48.844;9.156;2023-04-23T05:06:13;5.70;;;2.42;;
789;SDS011;378;48.844;9.156;2023-04-23T05:08:39;4.30;;;2.60;;
789;SDS011;378;48.844;9.156;2023-04-23T05:11:11;4.22;;;2.20;;
789;SDS011;378;48.844;9.156;2023-04-23T05:13:39;5.72;;;2.35;;
789;SDS011;378;48.844;9.156;2023-04-23T05:16:05;4.10;;;2.20;;
789;SDS011;378;48.844;9.156;2023-04-23T05:18:33;4.57;;;2.60;;
789;SDS011;378;48.844;9.156;2023-04-23T05:21:00;4.75;;;2.30;;
789;SDS011;378;48.844;9.156;2023-04-23T05:23:28;2.47;;;1.95;;
789;SDS011;378;48.844;9.156;2023-04-23T05:25:55;4.13;;;2.03;;
789;SDS011;378;48.844;9.156;2023-04-23T05:28:22;3.78;;;1.80;;
789;SDS011;378;48.844;9.156;2023-04-23T05:30:50;4.00;;;2.00;;
789;SDS011;378;48.844;9.156;2023-04-23T05:33:17;4.10;;;2.03;;
789;SDS011;378;48.844;9.156;2023-04-23T05:35:44;2.90;;;2.20;;
789;SDS011;378;48.844;9.156;2023-04-23T05:38:10;2.45;;;1.67;;
789;SDS011;378;48.844;9.156;2023-04-23T05:40:39;3.95;;;2.15;;
789;SDS011;378;48.844;9.156;2023-04-23T05:43:05;2.17;;;1.70;;
789;SDS011;378;48.844;9.156;2023-04-23T05:45:32;2.53;;;2.08;;
789;SDS011;378;48.844;9.156;2023-04-23T05:47:59;2.33;;;1.55;;
789;SDS011;378;48.844;9.156;2023-04-23T05:50:26;2.75;;;1.90;;
789;SDS011;378;48.844;9.156;2023-04-23T05:52:53;2.50;;;1.70;;
789;SDS011;378;48.844;9.156;2023-04-23T05:55:20;4.28;;;2.00;;
789;SDS011;378;48.844;9.156;2023-04-23T05:57:49;2.38;;;1.70;;
789;SDS011;378;48.844;9.156;2023-04-23T06:00:16;2.45;;;1.50;;
789;SDS011;378;48.844;9.156;2023-04-23T06:02:43;4.95;;;2.08;;
789;SDS011;378;48.844;9.156;2023-04-23T06:05:10;2.70;;;1.60;;
789;SDS011;378;48.844;9.156;2023-04-23T06:07:37;2.33;;;1.40;;
789;SDS011;378;48.844;9.156;2023-04-23T06:10:05;2.83;;;1.42;;
789;SDS011;378;48.844;9.156;2023-04-23T06:12:33;1.98;;;1.13;;
789;SDS011;378;48.844;9.156;2023-04-23T06:15:05;2.17;;;1.30;;
789;SDS011;378;48.844;9.156;2023-04-23T06:17:32;1.75;;;1.20;;
789;SDS011;378;48.844;9.156;2023-04-23T06:20:00;1.33;;;1.08;;
789;SDS011;378;48.844;9.156;2023-04-23T06:22:27;3.53;;;1.48;;
789;SDS011;378;48.844;9.156;2023-04-23T06:24:53;3.05;;;1.30;;
789;SDS011;378;48.844;9.156;2023-04-23T06:27:20;1.90;;;1.23;;
789;SDS011;378;48.844;9.156;2023-04-23T06:29:47;1.83;;;1.17;;
789;SDS011;378;48.844;9.156;2023-04-23T06:32:15;2.25;;;1.20;;
789;SDS011;378;48.844;9.156;2023-04-23T06:34:42;1.88;;;1.08;;
789;SDS011;378;48.844;9.156;2023-04-23T06:37:09;2.05;;;1.15;;
789;SDS011;378;48.844;9.156;2023-04-23T06:39:36;1.25;;;0.98;;
789;SDS011;378;48.844;9.156;2023-04-23T06:42:03;3.30;;;1.40;;
789;SDS011;378;48.844;9.156;2023-04-23T06:44:30;1.13;;;1.00;;
789;SDS011;378;48.844;9.156;2023-04-23T06:46:56;1.23;;;1.02;;
789;SDS011;378;48.844;9.156;2023-04-23T06:49:24;1.30;;;1.00;;
789;SDS011;378;48.844;9.156;2023-04-23T06:51:51;0.80;;;0.70;;
789;SDS011;378;48.844;9.156;2023-04-23T06:54:18;0.98;;;0.90;;
789;SDS011;378;48.844;9.156;2023-04-23T06:56:45;1.17;;;0.90;;
789;SDS011;378;48.844;9.156;2023-04-23T06:59:12;1.20;;;0.90;;
789;SDS011;378;48.844;9.156;2023-04-23T07:01:39;1.10;;;0.90;;
789;SDS011;378;48.844;9.156;2023-04-23T07:04:05;1.25;;;0.82;;
789;SDS011;378;48.844;9.156;2023-04-23T07:06:34;2.65;;;0.88;;
789;SDS011;378;48.844;9.156;2023-04-23T07:09:01;2.15;;;0.70;;
789;SDS011;378;48.844;9.156;2023-04-23T07:11:28;0.70;;;0.57;;
789;SDS011;378;48.844;9.156;2023-04-23T07:13:55;0.80;;;0.60;;
789;SDS011;378;48.844;9.156;2023-04-23T07:16:23;3.28;;;0.60;;
789;SDS011;378;48.844;9.156;2023-04-23T07:18:49;0.40;;;0.40;;
789;SDS011;378;48.844;9.156;2023-04-23T07:21:16;1.27;;;0.50;;
789;SDS011;378;48.844;9.156;2023-04-23T07:23:45;1.13;;;0.70;;
789;SDS011;378;48.844;9.156;2023-04-23T07:26:11;2.83;;;0.47;;
789;SDS011;378;48.844;9.156;2023-04-23T07:28:38;0.85;;;0.50;;
789;SDS011;378;48.844;9.156;2023-04-23T07:31:05;0.50;;;0.40;;
789;SDS011;378;48.844;9.156;2023-04-23T07:33:33;0.40;;;0.40;;
789;SDS011;378;48.844;9.156;2023-04-23T07:36:00;1.05;;;0.50;;
789;SDS011;378;48.844;9.156;2023-04-23T07:38:27;2.45;;;0.45;;
789;SDS011;378;48.844;9.156;2023-04-23T07:40:55;0.63;;;0.52;;
789;SDS011;378;48.844;9.156;2023-04-23T07:43:22;1.75;;;0.60;;
789;SDS011;378;48.844;9.156;2023-04-23T07:45:49;0.45;;;0.45;;
789;SDS011;378;48.844;9.156;2023-04-23T07:48:15;0.47;;;0.47;;
789;SDS011;378;48.844;9.156;2023-04-23T07:50:42;0.40;;;0.40;;
789;SDS011;378;48.844;9.156;2023-04-23T07:53:09;0.75;;;0.50;;
789;SDS011;378;48.844;9.156;2023-04-23T07:55:36;1.67;;;0.77;;
789;SDS011;378;48.844;9.156;2023-04-23T07:58:04;2.97;;;0.90;;
789;SDS011;378;48.844;9.156;2023-04-23T08:00:31;2.28;;;1.10;;
789;SDS011;378;48.844;9.156;2023-04-23T08:02:58;2.70;;;0.82;;
789;SDS011;378;48.844;9.156;2023-04-23T08:05:25;3.33;;;0.93;;
789;SDS011;378;48.844;9.156;2023-04-23T08:07:51;1.33;;;0.70;;
789;SDS011;378;48.844;9.156;2023-04-23T08:10:18;1.75;;;0.80;;
789;SDS011;378;48.844;9.156;2023-04-23T08:12:45;1.05;;;0.77;;
789;SDS011;378;48.844;9.156;2023-04-23T08:15:13;1.25;;;0.70;;
789;SDS011;378;48.844;9.156;2023-04-23T08:17:40;0.98;;;0.70;;
789;SDS011;378;48.844;9.156;2023-04-23T08:20:07;1.02;;;0.63;;
789;SDS011;378;48.844;9.156;2023-04-23T08:22:34;0.73;;;0.70;;
789;SDS011;378;48.844;9.156;2023-04-23T08:25:01;2.17;;;0.70;;
789;SDS011;378;48.844;9.156;2023-04-23T08:27:28;0.60;;;0.60;;
789;SDS011;378;48.844;9.156;2023-04-23T08:29:55;1.17;;;0.80;;
789;SDS011;378;48.844;9.156;2023-04-23T08:32:24;0.90;;;0.63;;
789;SDS011;378;48.844;9.156;2023-04-23T08:34:52;0.77;;;0.70;;
789;SDS011;378;48.844;9.156;2023-04-23T08:37:18;1.85;;;0.70;;
789;SDS011;378;48.844;9.156;2023-04-23T08:39:45;0.80;;;0.80;;
789;SDS011;378;48.844;9.156;2023-04-23T08:42:14;1.08;;;0.63;;
789;SDS011;378;48.844;9.156;2023-04-23T08:44:48;0.90;;;0.90;;
789;SDS011;378;48.844;9.156;2023-04-23T08:47:18;2.03;;;1.00;;
789;SDS011;378;48.844;9.156;2023-04-23T08:49:51;2.45;;;0.85;;
789;SDS011;378;48.844;9.156;2023-04-23T08:52:22;0.80;;;0.68;;
789;SDS011;378;48.844;9.156;2023-04-23T08:54:52;2.67;;;0.80;;
789;SDS011;378;48.844;9.156;2023-04-23T08:57:19;1.20;;;0.70;;
789;SDS011;378;48.844;9.156;2023-04-23T08:59:47;1.45;;;0.90;;
789;SDS011;378;48.844;9.156;2023-04-23T09:02:14;1.98;;;0.90;;
789;SDS011;378;48.844;9.156;2023-04-23T09:04:43;1.92;;;0.98;;
789;SDS011;378;48.844;9.156;2023-04-23T09:07:12;0.98;;;0.82;;
789;SDS011;378;48.844;9.156;2023-04-23T09:09:39;1.02;;;0.77;;
789;SDS011;378;48.844;9.156;2023-04-23T09:12:07;1.02;;;0.80;;
789;SDS011;378;48.844;9.156;2023-04-23T09:14:34;1.75;;;0.80;;
789;SDS011;378;48.844;9.156;2023-04-23T09:17:02;1.30;;;0.90;;
789;SDS011;378;48.844;9.156;2023-04-23T09:19:29;1.00;;;0.73;;
789;SDS011;378;48.844;9.156;2023-04-23T09:21:57;5.28;;;1.15;;
789;SDS011;378;48.844;9.156;2023-04-23T09:24:27;1.35;;;1.00;;
789;SDS011;378;48.844;9.156;2023-04-23T09:26:56;1.95;;;1.00;;
789;SDS011;378;48.844;9.156;2023-04-23T09:29:23;1.75;;;1.17;;
789;SDS011;378;48.844;9.156;2023-04-23T09:31:51;1.73;;;1.13;;
789;SDS011;378;48.844;9.156;2023-04-23T09:34:20;1.75;;;1.10;;
789;SDS011;378;48.844;9.156;2023-04-23T09:36:48;1.70;;;1.20;;
789;SDS011;378;48.844;9.156;2023-04-23T09:39:17;2.80;;;1.08;;
789;SDS011;378;48.844;9.156;2023-04-23T09:41:45;2.08;;;1.00;;
789;SDS011;378;48.844;9.156;2023-04-23T09:44:16;1.40;;;0.90;;
789;SDS011;378;48.844;9.156;2023-04-23T09:46:44;1.33;;;0.95;;
789;SDS011;378;48.844;9.156;2023-04-23T09:49:11;1.70;;;0.93;;
789;SDS011;378;48.844;9.156;2023-04-23T09:51:39;2.50;;;1.20;;
789;SDS011;378;48.844;9.156;2023-04-23T09:54:09;2.17;;;1.10;;
789;SDS011;378;48.844;9.156;2023-04-23T09:56:37;5.00;;;1.20;;
789;SDS011;378;48.844;9.156;2023-04-23T09:59:19;2.35;;;1.10;;
789;SDS011;378;48.844;9.156;2023-04-23T10:01:46;0.80;;;0.80;;
789;SDS011;378;48.844;9.156;2023-04-23T10:04:16;1.80;;;0.90;;
789;SDS011;378;48.844;9.156;2023-04-23T10:06:44;1.08;;;1.00;;
789;SDS011;378;48.844;9.156;2023-04-23T10:09:11;1.23;;;0.98;;
789;SDS011;378;48.844;9.156;2023-04-23T10:11:38;2.20;;;0.90;;
789;SDS011;378;48.844;9.156;2023-04-23T10:14:06;0.80;;;0.70;;
789;SDS011;378;48.844;9.156;2023-04-23T10:16:35;6.50;;;1.20;;
789;SDS011;378;48.844;9.156;2023-04-23T10:19:03;5.18;;;0.90;;
789;SDS011;378;48.844;9.156;2023-04-23T10:21:31;1.60;;;0.80;;
789;SDS011;378;48.844;9.156;2023-04-23T10:23:59;1.00;;;0.88;;
789;SDS011;378;48.844;9.156;2023-04-23T10:26:27;1.25;;;0.90;;
789;SDS011;378;48.844;9.156;2023-04-23T10:28:58;1.98;;;0.63;;
789;SDS011;378;48.844;9.156;2023-04-23T10:31:26;0.95;;;0.85;;
789;SDS011;378;48.844;9.156;2023-04-23T10:33:55;0.80;;;0.80;;
789;SDS011;378;48.844;9.156;2023-04-23T10:36:25;2.30;;;0.90;;
789;SDS011;378;48.844;9.156;2023-04-23T10:38:53;1.00;;;0.88;;
789;SDS011;378;48.844;9.156;2023-04-23T10:41:20;1.15;;;0.80;;
789;SDS011;378;48.844;9.156;2023-04-23T10:43:52;1.77;;;0.80;;
789;SDS011;378;48.844;9.156;2023-04-23T10:46:26;1.20;;;0.73;;
789;SDS011;378;48.844;9.156;2023-04-23T10:49:05;1.75;;;0.90;;
789;SDS011;378;48.844;9.156;2023-04-23T10:51:33;0.88;;;0.70;;
789;SDS011;378;48.844;9.156;2023-04-23T10:54:01;1.05;;;0.73;;
789;SDS011;378;48.844;9.156;2023-04-23T10:56:29;2.08;;;0.85;;
789;SDS011;378;48.844;9.156;2023-04-23T10:58:56;1.17;;;0.63;;
789;SDS011;378;48.844;9.156;2023-04-23T11:01:23;1.65;;;0.80;;
789;SDS011;378;48.844;9.156;2023-04-23T11:03:51;2.28;;;0.60;;
789;SDS011;378;48.844;9.156;2023-04-23T11:06:20;0.70;;;0.70;;
789;SDS011;378;48.844;9.156;2023-04-23T11:09:28;0.95;;;0.70;;
789;SDS011;378;48.844;9.156;2023-04-23T11:11:55;0.60;;;0.60;;
789;SDS011;378;48.844;9.156;2023-04-23T11:14:32;1.10;;;0.70;;
789;SDS011;378;48.844;9.156;2023-04-23T11:16:59;0.98;;;0.50;;
789;SDS011;378;48.844;9.156;2023-04-23T11:19:26;1.27;;;0.65;;
789;SDS011;378;48.844;9.156;2023-04-23T11:21:57;1.13;;;0.70;;
789;SDS011;378;48.844;9.156;2023-04-23T11:24:30;1.85;;;0.40;;
789;SDS011;378;48.844;9.156;2023-04-23T11:27:00;0.88;;;0.40;;
789;SDS011;378;48.844;9.156;2023-04-23T11:29:30;1.17;;;0.40;;
789;SDS011;378;48.844;9.156;2023-04-23T11:31:57;1.00;;;0.40;;
789;SDS011;378;48.844;9.156;2023-04-23T11:34:25;0.77;;;0.55;;
789;SDS011;378;48.844;9.156;2023-04-23T11:36:52;1.17;;;0.60;;
789;SDS011;378;48.844;9.156;2023-04-23T11:39:20;4.15;;;0.60;;
789;SDS011;378;48.844;9.156;2023-04-23T11:41:50;2.17;;;0.50;;
789;SDS011;378;48.844;9.156;2023-04-23T11:44:17;0.65;;;0.50;;
789;SDS011;378;48.844;9.156;2023-04-23T11:46:45;1.80;;;0.52;;
789;SDS011;378;48.844;9.156;2023-04-23T11:49:13;1.45;;;0.50;;
789;SDS011;378;48.844;9.156;2023-04-23T11:51:41;0.88;;;0.60;;
789;SDS011;378;48.844;9.156;2023-04-23T11:54:09;1.63;;;0.57;;
789;SDS011;378;48.844;9.156;2023-04-23T11:56:36;0.68;;;0.50;;
789;SDS011;378;48.844;9.156;2023-04-23T11:59:04;1.00;;;0.47;;
789;SDS011;378;48.844;9.156;2023-04-23T12:01:41;0.65;;;0.50;;
789;SDS011;378;48.844;9.156;2023-04-23T12:04:09;1.40;;;0.50;;
789;SDS011;378;48.844;9.156;2023-04-23T12:06:40;0.75;;;0.60;;
789;SDS011;378;48.844;9.156;2023-04-23T12:09:07;0.57;;;0.40;;
789;SDS011;378;48.844;9.156;2023-04-23T12:11:35;1.98;;;0.30;;
789;SDS011;378;48.844;9.156;2023-04-23T12:14:03;1.42;;;0.43;;
789;SDS011;378;48.844;9.156;2023-04-23T12:16:33;0.50;;;0.50;;
789;SDS011;378;48.844;9.156;2023-04-23T12:19:01;0.60;;;0.47;;
789;SDS011;378;48.844;9.156;2023-04-23T12:21:28;1.88;;;0.52;;
789;SDS011;378;48.844;9.156;2023-04-23T12:23:55;0.93;;;0.45;;
789;SDS011;378;48.844;9.156;2023-04-23T12:26:23;0.68;;;0.30;;
789;SDS011;378;48.844;9.156;2023-04-23T12:28:51;0.85;;;0.50;;
789;SDS011;378;48.844;9.156;2023-04-23T12:31:21;0.63;;;0.50;;
789;SDS011;378;48.844;9.156;2023-04-23T12:33:52;0.63;;;0.50;;
789;SDS011;378;48.844;9.156;2023-04-23T12:36:25;0.95;;;0.38;;
789;SDS011;378;48.844;9.156;2023-04-23T12:38:54;1.77;;;0.50;;
789;SDS011;378;48.844;9.156;2023-04-23T12:41:49;0.60;;;0.60;;
789;SDS011;378;48.844;9.156;2023-04-23T12:44:17;0.60;;;0.50;;
789;SDS011;378;48.844;9.156;2023-04-23T12:46:47;3.63;;;0.60;;
789;SDS011;378;48.844;9.156;2023-04-23T12:49:15;0.63;;;0.60;;
789;SDS011;378;48.844;9.156;2023-04-23T12:51:42;0.68;;;0.50;;
789;SDS011;378;48.844;9.156;2023-04-23T12:54:09;5.80;;;2.65;;
789;SDS011;378;48.844;9.156;2023-04-23T12:56:36;1.17;;;0.55;;
789;SDS011;378;48.844;9.156;2023-04-23T12:59:03;2.42;;;0.55;;
789;SDS011;378;48.844;9.156;2023-04-23T13:01:30;1.25;;;0.70;;
789;SDS011;378;48.844;9.156;2023-04-23T13:03:59;0.50;;;0.50;;
789;SDS011;378;48.844;9.156;2023-04-23T13:06:26;1.13;;;0.70;;
789;SDS011;378;48.844;9.156;2023-04-23T13:08:53;1.92;;;0.63;;
789;SDS011;378;48.844;9.156;2023-04-23T13:11:21;2.00;;;0.65;;
789;SDS011;378;48.844;9.156;2023-04-23T13:13:48;1.17;;;0.70;;
789;SDS011;378;48.844;9.156;2023-04-23T13:16:15;5.28;;;0.75;;
789;SDS011;378;48.844;9.156;2023-04-23T13:18:42;2.28;;;0.60;;
789;SDS011;378;48.844;9.156;2023-04-23T13:21:11;2.35;;;0.75;;
789;SDS011;378;48.844;9.156;2023-04-23T13:23:37;0.90;;;0.68;;
789;SDS011;378;48.844;9.156;2023-04-23T13:26:04;0.95;;;0.70;;
789;SDS011;378;48.844;9.156;2023-04-23T13:28:32;1.05;;;0.70;;
789;SDS011;378;48.844;9.156;2023-04-23T13:30:59;2.13;;;0.90;;
789;SDS011;378;48.844;9.156;2023-04-23T13:33:26;0.68;;;0.50;;
789;SDS011;378;48.844;9.156;2023-04-23T13:35:53;1.85;;;0.57;;
789;SDS011;378;48.844;9.156;2023-04-23T13:38:22;0.75;;;0.47;;
789;SDS011;378;48.844;9.156;2023-04-23T13:40:49;1.08;;;0.47;;
789;SDS011;378;48.844;9.156;2023-04-23T13:43:16;2.78;;;0.77;;
789;SDS011;378;48.844;9.156;2023-04-23T13:45:42;2.45;;;0.43;;
789;SDS011;378;48.844;9.156;2023-04-23T13:48:10;0.60;;;0.50;;
789;SDS011;378;48.844;9.156;2023-04-23T13:50:37;2.30;;;0.68;;
789;SDS011;378;48.844;9.156;2023-04-23T13:53:04;0.90;;;0.60;;
789;SDS011;378;48.844;9.156;2023-04-23T13:55:32;1.38;;;0.57;;
789;SDS011;378;48.844;9.156;2023-04-23T13:57:59;2.80;;;0.80;;
789;SDS011;378;48.844;9.156;2023-04-23T14:00:26;1.23;;;0.55;;
789;SDS011;378;48.844;9.156;2023-04-23T14:02:53;1.98;;;0.57;;
789;SDS011;378;48.844;9.156;2023-04-23T14:05:20;0.82;;;0.60;;
789;SDS011;378;48.844;9.156;2023-04-23T14:07:47;1.48;;;0.40;;
789;SDS011;378;48.844;9.156;2023-04-23T14:10:14;3.05;;;0.43;;
789;SDS011;378;48.844;9.156;2023-04-23T14:12:43;0.30;;;0.30;;
789;SDS011;378;48.844;9.156;2023-04-23T14:15:10;2.25;;;0.40;;
789;SDS011;378;48.844;9.156;2023-04-23T14:17:38;0.90;;;0.55;;
789;SDS011;378;48.844;9.156;2023-04-23T14:20:07;0.63;;;0.50;;
789;SDS011;378;48.844;9.156;2023-04-23T14:22:34;0.85;;;0.55;;
789;SDS011;378;48.844;9.156;2023-04-23T14:25:02;1.92;;;0.50;;
789;SDS011;378;48.844;9.156;2023-04-23T14:27:33;0.63;;;0.50;;
789;SDS011;378;48.844;9.156;2023-04-23T14:30:13;1.50;;;0.50;;
789;SDS011;378;48.844;9.156;2023-04-23T14:32:40;1.42;;;0.70;;
789;SDS011;378;48.844;9.156;2023-04-23T14:35:08;1.83;;;0.50;;
789;SDS011;378;48.844;9.156;2023-04-23T14:37:35;5.97;;;0.70;;
789;SDS011;378;48.844;9.156;2023-04-23T14:40:02;0.88;;;0.45;;
789;SDS011;378;48.844;9.156;2023-04-23T14:42:30;1.60;;;0.60;;
789;SDS011;378;48.844;9.156;2023-04-23T14:44:57;3.75;;;0.55;;
789;SDS011;378;48.844;9.156;2023-04-23T14:47:26;1.08;;;0.40;;
789;SDS011;378;48.844;9.156;2023-04-23T14:49:52;1.02;;;0.50;;
789;SDS011;378;48.844;9.156;2023-04-23T14:52:21;0.98;;;0.50;;
789;SDS011;378;48.844;9.156;2023-04-23T14:54:48;1.60;;;0.60;;
789;SDS011;378;48.844;9.156;2023-04-23T14:57:16;3.42;;;0.63;;
789;SDS011;378;48.844;9.156;2023-04-23T14:59:43;1.42;;;0.70;;
789;SDS011;378;48.844;9.156;2023-04-23T15:02:09;1.30;;;0.40;;
789;SDS011;378;48.844;9.156;2023-04-23T15:04:38;1.73;;;0.70;;
789;SDS011;378;48.844;9.156;2023-04-23T15:07:05;1.50;;;0.80;;
789;SDS011;378;48.844;9.156;2023-04-23T15:09:31;3.30;;;0.90;;
789;SDS011;378;48.844;9.156;2023-04-23T15:11:58;2.55;;;0.70;;
789;SDS011;378;48.844;9.156;2023-04-23T15:14:29;0.70;;;0.70;;
789;SDS011;378;48.844;9.156;2023-04-23T15:16:57;3.83;;;0.80;;
789;SDS011;378;48.844;9.156;2023-04-23T15:19:24;2.65;;;0.70;;
789;SDS011;378;48.844;9.156;2023-04-23T15:21:53;5.18;;;0.70;;
789;SDS011;378;48.844;9.156;2023-04-23T15:24:19;3.35;;;0.70;;
789;SDS011;378;48.844;9.156;2023-04-23T15:26:46;3.47;;;0.90;;
789;SDS011;378;48.844;9.156;2023-04-23T15:29:14;3.03;;;1.00;;
789;SDS011;378;48.844;9.156;2023-04-23T15:31:40;2.30;;;0.82;;
789;SDS011;378;48.844;9.156;2023-04-23T15:34:07;2.33;;;0.90;;
789;SDS011;378;48.844;9.156;2023-04-23T15:36:36;3.65;;;0.90;;
789;SDS011;378;48.844;9.156;2023-04-23T15:39:04;2.45;;;0.95;;
789;SDS011;378;48.844;9.156;2023-04-23T15:41:32;1.90;;;1.08;;
789;SDS011;378;48.844;9.156;2023-04-23T15:44:00;3.28;;;1.05;;
789;SDS011;378;48.844;9.156;2023-04-23T15:46:27;3.58;;;0.80;;
789;SDS011;378;48.844;9.156;2023-04-23T15:48:54;1.88;;;1.00;;